Time;durP1;ratioP1;P1;durP2;ratioP2;P2;SDS_P1;SDS_P2;PMS_P1;PMS_P2;Temp;Humidity;BMP_temperature;BMP_pressure;BME280_temperature;BME280_humidity;BME280_pressure;Samples;Min_cycle;Max_cycle;Signal;HPM_P1;HPM_P2
2022/03/07 00:02:12;;;;;;;9.07;8.27;;;7.30;36.90;;;;;;5050139;28;20277;-44
2022/03/07 00:04:38;;;;;;;8.47;7.47;;;7.30;36.60;;;;;;5047931;28;20255;-45
2022/03/07 00:07:04;;;;;;;9.90;8.70;;;7.30;36.60;;;;;;5042286;28;20849;-45
2022/03/07 00:09:30;;;;;;;9.10;8.20;;;7.50;36.50;;;;;;5046290;28;20459;-49
2022/03/07 00:11:55;;;;;;;8.90;8.00;;;7.60;36.30;;;;;;5038524;28;20223;-49
2022/03/07 00:14:21;;;;;;;10.13;7.60;;;7.60;36.40;;;;;;5038228;28;20204;-44
2022/03/07 00:16:47;;;;;;;10.10;7.70;;;7.70;36.30;;;;;;5043180;28;20192;-46
2022/03/07 00:19:13;;;;;;;8.50;7.70;;;7.70;36.10;;;;;;5044533;28;20199;-47
2022/03/07 00:21:39;;;;;;;9.00;8.10;;;7.80;36.00;;;;;;5044693;28;20279;-44
2022/03/07 00:24:06;;;;;;;8.73;7.60;;;7.80;35.90;;;;;;5040924;28;20471;-46
2022/03/07 00:26:32;;;;;;;8.93;8.00;;;7.50;36.20;;;;;;5046932;28;20445;-49
2022/03/07 00:28:58;;;;;;;9.57;8.47;;;7.60;36.20;;;;;;5040253;28;20453;-44
2022/03/07 00:31:23;;;;;;;9.87;7.70;;;7.70;36.10;;;;;;5045841;28;20439;-45
2022/03/07 00:33:50;;;;;;;8.53;7.63;;;7.70;36.00;;;;;;5037704;28;20205;-43
2022/03/07 00:36:17;;;;;;;7.70;6.90;;;7.80;36.00;;;;;;5036788;28;20207;-48
2022/03/07 00:38:42;;;;;;;8.23;7.00;;;7.80;35.80;;;;;;5045274;28;20444;-44
2022/03/07 00:41:09;;;;;;;8.87;7.67;;;7.90;35.70;;;;;;5041918;28;20447;-49
2022/03/07 00:43:35;;;;;;;8.37;7.50;;;7.90;35.40;;;;;;5039735;28;20251;-44
2022/03/07 00:46:02;;;;;;;7.10;6.40;;;7.90;35.20;;;;;;5042043;28;20466;-46
2022/03/07 00:48:27;;;;;;;7.03;6.30;;;7.90;35.30;;;;;;5043100;28;20939;-45
2022/03/07 00:50:53;;;;;;;7.63;6.93;;;7.90;35.30;;;;;;5046774;28;20446;-46
2022/03/07 00:53:22;;;;;;;9.83;7.43;;;7.90;35.10;;;;;;5046307;28;20189;-44
2022/03/07 00:55:49;;;;;;;7.90;6.93;;;8.00;35.20;;;;;;5046474;28;20443;-44
2022/03/07 00:58:14;;;;;;;8.80;7.07;;;8.00;34.90;;;;;;5043800;28;20954;-45
2022/03/07 01:00:41;;;;;;;7.10;6.40;;;8.00;34.80;;;;;;5049703;28;20427;-44
2022/03/07 01:03:08;;;;;;;8.90;7.73;;;8.00;34.70;;;;;;5040577;28;20563;-46
2022/03/07 01:05:34;;;;;;;7.80;7.00;;;8.00;34.80;;;;;;5041907;28;21057;-46
2022/03/07 01:08:00;;;;;;;8.93;6.60;;;8.00;34.80;;;;;;5042585;28;20443;-45
2022/03/07 01:10:26;;;;;;;7.83;7.03;;;8.00;34.90;;;;;;5037062;28;20251;-44
2022/03/07 01:12:52;;;;;;;7.23;6.40;;;7.90;35.10;;;;;;5047034;28;20474;-44
2022/03/07 01:15:18;;;;;;;6.77;6.17;;;7.70;34.60;;;;;;5037530;28;20201;-44
2022/03/07 01:17:43;;;;;;;7.67;6.80;;;7.70;34.90;;;;;;5041198;28;21048;-44
2022/03/07 01:20:10;;;;;;;8.37;7.10;;;7.80;34.90;;;;;;5039654;28;20203;-45
2022/03/07 01:22:37;;;;;;;8.53;6.93;;;7.80;34.70;;;;;;5035043;28;20211;-44
2022/03/07 01:25:04;;;;;;;7.77;6.70;;;7.70;34.80;;;;;;5033893;28;20580;-45
2022/03/07 01:27:30;;;;;;;7.33;6.63;;;7.60;34.80;;;;;;5044166;28;20438;-45
2022/03/07 01:29:56;;;;;;;7.17;6.47;;;7.70;35.10;;;;;;5043797;28;20447;-44
2022/03/07 01:32:21;;;;;;;8.50;7.00;;;7.70;35.00;;;;;;5039483;28;20294;-45
2022/03/07 01:34:47;;;;;;;7.87;6.53;;;7.80;35.00;;;;;;5042217;28;20453;-45
2022/03/07 01:37:13;;;;;;;10.00;7.30;;;7.80;34.80;;;;;;5039229;28;20197;-44
2022/03/07 01:39:38;;;;;;;7.70;6.90;;;7.80;34.50;;;;;;5043565;28;20189;-44
2022/03/07 01:42:04;;;;;;;7.70;6.90;;;7.90;34.60;;;;;;5040639;28;20640;-44
2022/03/07 01:44:30;;;;;;;7.20;6.50;;;7.90;34.40;;;;;;5042386;28;20268;-44
2022/03/07 01:46:56;;;;;;;7.00;6.30;;;7.90;34.20;;;;;;5036250;28;20669;-44
2022/03/07 01:49:23;;;;;;;7.27;6.13;;;8.00;34.30;;;;;;5037557;28;20211;-45
2022/03/07 01:51:49;;;;;;;6.93;6.23;;;7.80;34.20;;;;;;5041690;28;20458;-44
2022/03/07 01:54:17;;;;;;;8.60;7.70;;;7.60;34.20;;;;;;5040915;28;20457;-45
2022/03/07 01:56:47;;;;;;;7.27;6.57;;;7.50;34.40;;;;;;5039657;28;20529;-46
2022/03/07 01:59:15;;;;;;;8.03;7.23;;;7.20;34.40;;;;;;5038168;28;20450;-44
2022/03/07 02:01:41;;;;;;;8.50;6.73;;;7.10;34.90;;;;;;5041785;28;20571;-47
2022/03/07 02:04:07;;;;;;;7.93;7.13;;;7.00;35.00;;;;;;5043974;28;20577;-49
2022/03/07 02:06:33;;;;;;;8.30;7.30;;;6.70;35.30;;;;;;5042711;28;20608;-45
2022/03/07 02:08:58;;;;;;;7.83;7.03;;;6.30;35.70;;;;;;5041150;28;20565;-47
2022/03/07 02:11:25;;;;;;;8.47;7.30;;;6.20;36.10;;;;;;5042774;28;20227;-45
2022/03/07 02:13:52;;;;;;;7.87;7.07;;;6.20;36.30;;;;;;5040968;28;20205;-44
2022/03/07 02:16:18;;;;;;;9.77;7.70;;;6.20;36.40;;;;;;5039630;28;21001;-45
2022/03/07 02:18:44;;;;;;;9.93;7.30;;;6.20;36.40;;;;;;5042003;28;20478;-47
2022/03/07 02:21:14;;;;;;;7.63;6.93;;;6.40;36.20;;;;;;5037864;28;20443;-45
2022/03/07 02:23:40;;;;;;;8.00;7.20;;;6.20;36.10;;;;;;5040870;28;21027;-45
2022/03/07 02:26:15;;;;;;;8.03;7.00;;;6.20;36.50;;;;;;5041404;28;20458;-45
2022/03/07 02:28:41;;;;;;;8.90;7.80;;;6.30;36.40;;;;;;5037979;28;20434;-47
2022/03/07 02:31:07;;;;;;;9.50;7.07;;;6.30;36.30;;;;;;5041730;28;20443;-46
2022/03/07 02:33:34;;;;;;;7.40;6.63;;;6.10;36.40;;;;;;5039419;28;20475;-46
2022/03/07 02:36:00;;;;;;;13.30;7.77;;;6.30;36.50;;;;;;5043902;28;20951;-45
2022/03/07 02:38:25;;;;;;;10.17;7.53;;;6.30;36.00;;;;;;5041128;28;20446;-44
2022/03/07 02:40:51;;;;;;;9.30;7.23;;;6.40;35.80;;;;;;5035597;28;20193;-46
2022/03/07 02:43:17;;;;;;;10.00;7.90;;;6.50;35.80;;;;;;5045068;28;20267;-47
2022/03/07 02:45:43;;;;;;;8.40;7.37;;;6.30;35.60;;;;;;5046567;28;20599;-46
2022/03/07 02:48:09;;;;;;;10.60;7.93;;;6.40;36.00;;;;;;5045394;28;20954;-44
2022/03/07 02:50:35;;;;;;;8.90;8.10;;;6.40;35.90;;;;;;5040876;28;20461;-44
2022/03/07 02:53:00;;;;;;;8.30;7.20;;;6.30;35.90;;;;;;5045849;28;20281;-46
2022/03/07 02:55:26;;;;;;;8.80;6.97;;;6.40;35.90;;;;;;5042435;28;20205;-49
2022/03/07 02:57:51;;;;;;;10.20;7.67;;;6.40;35.80;;;;;;5048056;28;20560;-44
2022/03/07 03:00:18;;;;;;;7.80;6.70;;;6.40;35.70;;;;;;5042593;28;20247;-45
2022/03/07 03:02:44;;;;;;;9.73;8.03;;;6.50;35.60;;;;;;5044521;28;20200;-46
2022/03/07 03:05:10;;;;;;;8.60;7.27;;;6.50;35.50;;;;;;5046806;28;20491;-49
2022/03/07 03:07:35;;;;;;;8.27;7.53;;;6.60;35.40;;;;;;5043565;28;20431;-47
2022/03/07 03:10:01;;;;;;;8.03;7.03;;;6.60;35.20;;;;;;5041454;28;20443;-47
2022/03/07 03:12:27;;;;;;;8.50;7.53;;;6.60;35.20;;;;;;5044077;28;20561;-45
2022/03/07 03:14:53;;;;;;;8.37;7.13;;;6.60;35.10;;;;;;5041382;28;20201;-46
2022/03/07 03:17:19;;;;;;;9.23;7.00;;;6.60;35.10;;;;;;5032262;28;20485;-45
2022/03/07 03:19:45;;;;;;;8.10;7.33;;;6.60;35.10;;;;;;5045809;28;20514;-49
2022/03/07 03:22:11;;;;;;;9.03;7.87;;;6.60;35.20;;;;;;5040936;28;20946;-44
2022/03/07 03:24:37;;;;;;;7.73;6.97;;;6.60;35.40;;;;;;5042696;28;20239;-46
2022/03/07 03:27:04;;;;;;;8.20;7.40;;;6.60;35.30;;;;;;5039032;28;20272;-46
2022/03/07 03:29:30;;;;;;;8.57;7.17;;;6.60;35.20;;;;;;5043335;28;20439;-47
2022/03/07 03:31:56;;;;;;;8.17;7.37;;;6.60;35.30;;;;;;5046893;28;20453;-44
2022/03/07 03:34:22;;;;;;;8.50;7.43;;;6.50;35.30;;;;;;5043841;28;20452;-44
2022/03/07 03:36:48;;;;;;;8.60;7.40;;;6.50;35.30;;;;;;5044793;28;20454;-44
2022/03/07 03:39:13;;;;;;;8.67;7.07;;;6.50;35.30;;;;;;5039479;28;20201;-46
2022/03/07 03:41:39;;;;;;;8.00;7.20;;;6.60;35.50;;;;;;5036539;28;20649;-44
2022/03/07 03:44:05;;;;;;;9.30;7.70;;;6.50;35.50;;;;;;5043491;28;20311;-46
2022/03/07 03:46:31;;;;;;;9.40;7.40;;;6.40;35.50;;;;;;5048047;28;20450;-46
2022/03/07 03:48:57;;;;;;;8.20;7.40;;;6.40;35.40;;;;;;5045904;28;20212;-45
2022/03/07 03:51:22;;;;;;;9.53;8.10;;;6.40;35.60;;;;;;5041758;28;20216;-46
2022/03/07 03:53:48;;;;;;;8.80;7.60;;;6.30;35.70;;;;;;5042213;28;20444;-45
2022/03/07 03:56:13;;;;;;;9.00;8.10;;;6.30;35.80;;;;;;5041838;28;20715;-44
2022/03/07 03:58:39;;;;;;;11.87;8.37;;;6.20;35.70;;;;;;5045872;28;20918;-44
2022/03/07 04:01:04;;;;;;;8.37;7.57;;;6.10;35.90;;;;;;5038364;28;20247;-48
2022/03/07 04:03:30;;;;;;;11.10;8.90;;;6.10;36.00;;;;;;5040454;28;20222;-45
2022/03/07 04:05:56;;;;;;;9.63;8.27;;;6.10;36.10;;;;;;5039703;28;20291;-45
2022/03/07 04:08:22;;;;;;;12.43;8.80;;;6.10;36.10;;;;;;5042856;28;20197;-46
2022/03/07 04:10:48;;;;;;;11.83;9.10;;;6.10;36.00;;;;;;5039702;28;20305;-45
2022/03/07 04:13:13;;;;;;;9.87;8.77;;;6.10;36.10;;;;;;5037734;28;21773;-49
2022/03/07 04:15:39;;;;;;;9.70;8.53;;;6.00;36.20;;;;;;5038846;28;21015;-45
2022/03/07 04:18:06;;;;;;;9.70;8.70;;;5.90;36.40;;;;;;5044608;28;20220;-44
2022/03/07 04:20:33;;;;;;;11.90;8.77;;;5.70;36.80;;;;;;5042768;28;20443;-44
2022/03/07 04:23:02;;;;;;;11.90;9.93;;;5.70;37.50;;;;;;5045686;28;20436;-45
2022/03/07 04:25:28;;;;;;;12.87;9.47;;;5.60;37.50;;;;;;5041844;28;20518;-48
2022/03/07 04:27:54;;;;;;;12.70;10.50;;;5.60;37.70;;;;;;5044535;28;20450;-45
2022/03/07 04:30:20;;;;;;;11.13;9.30;;;5.60;37.80;;;;;;5045241;28;20493;-50
2022/03/07 04:32:46;;;;;;;12.23;9.53;;;5.60;37.80;;;;;;5039466;28;20672;-45
2022/03/07 04:35:12;;;;;;;11.30;9.20;;;5.60;38.00;;;;;;5042592;28;20212;-48
2022/03/07 04:37:40;;;;;;;12.60;9.90;;;5.60;38.20;;;;;;5036377;28;20197;-44
2022/03/07 04:40:11;;;;;;;11.67;9.57;;;5.60;38.20;;;;;;5043486;28;20494;-45
2022/03/07 04:42:37;;;;;;;13.87;9.53;;;5.60;38.20;;;;;;5042846;28;20439;-45
2022/03/07 04:45:04;;;;;;;12.67;9.53;;;5.60;38.20;;;;;;5048577;28;20486;-44
2022/03/07 04:47:29;;;;;;;11.97;9.53;;;5.30;38.60;;;;;;5040954;28;20510;-44
2022/03/07 04:49:55;;;;;;;12.60;10.50;;;5.40;38.80;;;;;;5045666;28;20554;-44
2022/03/07 04:52:20;;;;;;;13.03;10.03;;;5.40;38.70;;;;;;5045842;28;20193;-44
2022/03/07 04:54:46;;;;;;;14.00;9.70;;;5.50;38.80;;;;;;5047336;28;20759;-44
2022/03/07 04:57:11;;;;;;;11.70;9.30;;;5.50;38.80;;;;;;5045768;28;20593;-46
2022/03/07 04:59:37;;;;;;;13.67;9.90;;;5.60;38.70;;;;;;5048116;28;20193;-44
2022/03/07 05:02:03;;;;;;;12.40;9.97;;;5.60;38.60;;;;;;5025656;28;20216;-45
2022/03/07 05:04:28;;;;;;;14.53;10.60;;;5.70;38.60;;;;;;5030223;28;20687;-47
2022/03/07 05:06:54;;;;;;;11.60;10.03;;;5.70;38.60;;;;;;5037911;28;20223;-45
2022/03/07 05:09:20;;;;;;;13.20;9.43;;;5.70;38.60;;;;;;5038391;28;20579;-45
2022/03/07 05:11:45;;;;;;;9.90;8.67;;;5.70;38.70;;;;;;5042584;28;20192;-45
2022/03/07 05:14:11;;;;;;;10.37;8.93;;;5.60;38.60;;;;;;5045306;28;20235;-46
2022/03/07 05:16:37;;;;;;;10.90;8.63;;;5.70;38.80;;;;;;5047533;28;20189;-46
2022/03/07 05:19:02;;;;;;;12.70;8.90;;;5.80;38.70;;;;;;5038999;28;20204;-46
2022/03/07 05:21:29;;;;;;;9.40;8.40;;;5.80;38.50;;;;;;5047227;28;20556;-47
2022/03/07 05:23:55;;;;;;;13.30;9.90;;;5.80;38.60;;;;;;5047198;28;20240;-45
2022/03/07 05:26:20;;;;;;;11.27;9.17;;;5.90;38.60;;;;;;5042582;28;20452;-46
2022/03/07 05:28:46;;;;;;;17.70;12.13;;;5.90;38.50;;;;;;5039569;28;20207;-44
2022/03/07 05:31:13;;;;;;;16.50;11.50;;;5.90;38.50;;;;;;5037552;28;20250;-48
2022/03/07 05:33:40;;;;;;;20.13;15.30;;;5.90;38.60;;;;;;5040594;28;20287;-44
2022/03/07 05:36:06;;;;;;;13.97;9.93;;;5.90;38.60;;;;;;5046019;28;20496;-44
2022/03/07 05:38:32;;;;;;;12.13;9.50;;;5.90;38.70;;;;;;5044758;28;20451;-45
2022/03/07 05:40:58;;;;;;;15.00;10.17;;;5.90;39.10;;;;;;5041394;28;20845;-44
2022/03/07 05:43:24;;;;;;;11.80;9.90;;;5.90;38.50;;;;;;5045392;28;20498;-45
2022/03/07 05:45:50;;;;;;;14.50;10.60;;;5.90;38.70;;;;;;5044675;28;20511;-45
2022/03/07 05:48:15;;;;;;;17.70;10.77;;;5.90;38.80;;;;;;5043525;28;20203;-44
2022/03/07 05:50:41;;;;;;;10.73;9.47;;;5.90;38.80;;;;;;5029317;28;20209;-46
2022/03/07 05:53:07;;;;;;;10.00;8.60;;;5.90;38.70;;;;;;5046568;28;20279;-45
2022/03/07 05:55:33;;;;;;;12.77;9.40;;;5.90;38.70;;;;;;5044283;28;20193;-48
2022/03/07 05:58:02;;;;;;;21.77;12.80;;;5.90;38.70;;;;;;5043871;28;20447;-44
2022/03/07 06:00:29;;;;;;;16.40;12.23;;;5.90;38.80;;;;;;5041677;28;20435;-45
2022/03/07 06:02:54;;;;;;;15.73;10.27;;;5.90;38.90;;;;;;5045421;28;20442;-44
2022/03/07 06:05:21;;;;;;;12.10;9.60;;;5.90;38.90;;;;;;5038075;28;20479;-45
2022/03/07 06:07:46;;;;;;;11.63;8.93;;;5.80;38.90;;;;;;5042896;28;20220;-46
2022/03/07 06:10:12;;;;;;;15.90;11.63;;;5.90;39.40;;;;;;5040181;28;20482;-44
2022/03/07 06:12:37;;;;;;;9.80;8.00;;;5.90;38.80;;;;;;5046272;28;20200;-47
2022/03/07 06:15:05;;;;;;;13.50;10.73;;;5.90;39.90;;;;;;5040044;28;20200;-44
2022/03/07 06:17:31;;;;;;;19.03;10.40;;;6.30;44.50;;;;;;5044982;28;20196;-44
2022/03/07 06:19:57;;;;;;;8.97;8.00;;;6.60;43.00;;;;;;5037624;28;20458;-47
2022/03/07 06:22:22;;;;;;;10.93;9.13;;;6.90;40.80;;;;;;5041759;28;20435;-45
2022/03/07 06:24:48;;;;;;;9.90;8.50;;;7.10;39.70;;;;;;5029294;28;20486;-50
2022/03/07 06:27:14;;;;;;;8.67;7.40;;;7.30;38.60;;;;;;5044725;28;20200;-47
2022/03/07 06:29:40;;;;;;;9.03;8.13;;;7.40;38.30;;;;;;5041919;28;20438;-45
2022/03/07 06:32:06;;;;;;;12.87;8.80;;;7.50;38.60;;;;;;5045832;28;20211;-48
2022/03/07 06:34:33;;;;;;;10.77;8.83;;;7.70;38.60;;;;;;5045055;28;20466;-49
2022/03/07 06:36:59;;;;;;;9.60;8.20;;;7.90;38.00;;;;;;5050701;28;20544;-44
2022/03/07 06:39:27;;;;;;;11.30;9.63;;;8.00;37.20;;;;;;5047416;28;20454;-45
2022/03/07 06:41:53;;;;;;;11.93;9.23;;;8.10;36.70;;;;;;5046368;28;20530;-44
2022/03/07 06:44:19;;;;;;;9.10;8.20;;;8.10;36.70;;;;;;5049665;28;20486;-45
2022/03/07 06:46:44;;;;;;;8.87;7.97;;;8.00;36.30;;;;;;5051822;28;20450;-46
2022/03/07 06:49:10;;;;;;;9.50;7.83;;;8.00;36.00;;;;;;5044198;28;20296;-47
2022/03/07 06:51:37;;;;;;;9.33;7.97;;;8.10;35.90;;;;;;5051020;28;20246;-46
2022/03/07 06:54:03;;;;;;;9.80;7.87;;;8.10;35.80;;;;;;5047747;28;20193;-45
2022/03/07 06:56:29;;;;;;;8.50;7.60;;;8.10;36.00;;;;;;5050913;28;20449;-46
2022/03/07 06:58:55;;;;;;;11.17;9.00;;;8.10;36.00;;;;;;5050553;28;20651;-45
2022/03/07 07:01:21;;;;;;;8.33;7.47;;;7.80;36.70;;;;;;5049059;28;20423;-46
2022/03/07 07:03:46;;;;;;;8.27;7.47;;;7.90;36.80;;;;;;5044963;28;20196;-45
2022/03/07 07:06:12;;;;;;;11.30;8.00;;;7.60;37.00;;;;;;5050313;28;20718;-46
2022/03/07 07:08:38;;;;;;;8.63;7.70;;;7.40;37.60;;;;;;5047310;28;20194;-46
2022/03/07 07:11:04;;;;;;;9.60;8.20;;;7.70;37.60;;;;;;5045595;28;20446;-46
2022/03/07 07:13:29;;;;;;;9.90;7.77;;;8.10;37.20;;;;;;5048986;28;20205;-44
2022/03/07 07:15:55;;;;;;;9.23;8.30;;;8.30;36.00;;;;;;5039868;28;20227;-45
2022/03/07 07:18:24;;;;;;;10.53;8.37;;;8.70;35.50;;;;;;5045772;28;20617;-46
2022/03/07 07:20:52;;;;;;;9.20;7.77;;;8.90;34.90;;;;;;5046792;28;20222;-45
2022/03/07 07:23:19;;;;;;;10.10;8.60;;;9.20;34.90;;;;;;5038186;28;20444;-47
2022/03/07 07:25:45;;;;;;;8.73;7.23;;;9.50;34.40;;;;;;5048793;28;20489;-46
2022/03/07 07:28:12;;;;;;;10.10;8.50;;;9.80;33.80;;;;;;5050390;28;20443;-46
2022/03/07 07:30:38;;;;;;;10.30;9.30;;;10.00;32.60;;;;;;5047848;28;20439;-46
2022/03/07 07:33:04;;;;;;;9.43;7.93;;;10.20;32.10;;;;;;5049308;28;20454;-45
2022/03/07 07:35:30;;;;;;;11.70;8.40;;;10.40;31.90;;;;;;5049288;28;20566;-44
2022/03/07 07:37:55;;;;;;;9.80;8.90;;;10.50;31.90;;;;;;5047291;28;20431;-44
2022/03/07 07:40:21;;;;;;;9.37;7.70;;;10.40;30.90;;;;;;5048711;28;20203;-46
2022/03/07 07:42:47;;;;;;;10.40;8.10;;;10.50;31.30;;;;;;5046465;28;20196;-47
2022/03/07 07:45:12;;;;;;;9.33;7.83;;;10.20;30.90;;;;;;5043436;28;20486;-47
2022/03/07 07:47:39;;;;;;;9.07;8.17;;;9.70;32.30;;;;;;5047570;28;20187;-44
2022/03/07 07:50:05;;;;;;;11.67;8.23;;;9.10;32.70;;;;;;5043399;28;20197;-44
2022/03/07 07:52:31;;;;;;;10.37;8.30;;;8.50;33.80;;;;;;5046601;28;20435;-45
2022/03/07 07:54:57;;;;;;;8.97;7.97;;;8.50;34.40;;;;;;5042019;28;20948;-45
2022/03/07 07:57:22;;;;;;;9.13;7.47;;;8.20;34.90;;;;;;5043798;28;20197;-45
2022/03/07 07:59:48;;;;;;;9.63;8.27;;;8.10;35.50;;;;;;5041345;28;20289;-45
2022/03/07 08:02:14;;;;;;;9.37;8.47;;;8.20;35.40;;;;;;5033145;28;20197;-47
2022/03/07 08:04:39;;;;;;;11.93;10.30;;;8.00;34.90;;;;;;5047853;28;20268;-44
2022/03/07 08:07:05;;;;;;;12.83;8.83;;;7.70;35.10;;;;;;5043289;28;20679;-45
2022/03/07 08:09:30;;;;;;;8.80;7.90;;;7.40;36.00;;;;;;5041315;28;20219;-45
2022/03/07 08:11:57;;;;;;;10.00;7.63;;;7.70;36.00;;;;;;5039416;28;20194;-47
2022/03/07 08:14:23;;;;;;;10.00;8.20;;;7.70;35.80;;;;;;5040036;28;20288;-46
2022/03/07 08:16:49;;;;;;;9.43;7.90;;;7.60;35.80;;;;;;5035997;28;20446;-46
2022/03/07 08:19:15;;;;;;;10.10;8.40;;;7.90;35.80;;;;;;5034660;28;20432;-45
2022/03/07 08:21:41;;;;;;;11.57;9.10;;;8.00;35.20;;;;;;5043963;28;20221;-44
2022/03/07 08:24:06;;;;;;;9.30;8.23;;;7.80;34.70;;;;;;5042626;28;20475;-44
2022/03/07 08:26:33;;;;;;;9.80;8.80;;;7.70;35.00;;;;;;5044250;28;20232;-44
2022/03/07 08:28:58;;;;;;;8.67;7.80;;;7.60;35.30;;;;;;5041495;28;20201;-45
2022/03/07 08:31:24;;;;;;;10.17;9.07;;;7.50;35.60;;;;;;5049955;28;20918;-45
2022/03/07 08:33:50;;;;;;;10.80;9.00;;;7.50;35.60;;;;;;5042446;28;20193;-45
2022/03/07 08:36:15;;;;;;;9.80;8.80;;;7.80;35.70;;;;;;5044172;28;20197;-45
2022/03/07 08:38:41;;;;;;;10.33;9.27;;;8.10;35.70;;;;;;5045279;28;20291;-45
2022/03/07 08:41:07;;;;;;;9.47;8.10;;;8.50;35.40;;;;;;5047149;28;20250;-46
2022/03/07 08:43:33;;;;;;;13.20;9.73;;;8.60;34.70;;;;;;5045284;28;20763;-44
2022/03/07 08:45:59;;;;;;;10.00;8.60;;;8.80;34.10;;;;;;5042151;28;20512;-44
2022/03/07 08:48:25;;;;;;;9.23;7.40;;;8.90;33.80;;;;;;5046065;28;20424;-47
2022/03/07 08:50:51;;;;;;;9.70;8.77;;;8.70;33.20;;;;;;5045486;28;20855;-45
2022/03/07 08:53:17;;;;;;;9.30;8.30;;;8.90;33.40;;;;;;5035391;28;20193;-44
2022/03/07 08:55:43;;;;;;;12.27;9.20;;;9.00;33.30;;;;;;5047303;28;20431;-47
2022/03/07 08:58:09;;;;;;;8.60;7.63;;;8.90;32.70;;;;;;5043246;28;20427;-44
2022/03/07 09:00:35;;;;;;;8.87;7.97;;;8.90;32.20;;;;;;5048003;28;20489;-44
2022/03/07 09:03:00;;;;;;;9.70;8.70;;;9.20;32.50;;;;;;5046357;28;20197;-45
2022/03/07 09:05:26;;;;;;;9.80;8.70;;;9.50;32.00;;;;;;5048614;28;20230;-45
2022/03/07 09:07:52;;;;;;;11.80;9.57;;;9.50;31.80;;;;;;5046338;28;20234;-46
2022/03/07 09:10:17;;;;;;;10.73;8.70;;;9.70;31.60;;;;;;5048606;28;20193;-45
2022/03/07 09:12:43;;;;;;;11.67;9.47;;;9.50;32.00;;;;;;5044708;28;20188;-46
2022/03/07 09:15:09;;;;;;;11.70;8.80;;;9.20;33.60;;;;;;5040914;28;20672;-46
2022/03/07 09:17:35;;;;;;;11.70;9.50;;;9.20;33.10;;;;;;5046930;28;20212;-45
2022/03/07 09:20:00;;;;;;;11.20;10.07;;;9.20;33.30;;;;;;5042868;28;20802;-45
2022/03/07 09:22:27;;;;;;;11.77;9.10;;;9.40;33.40;;;;;;5048182;28;20205;-47
2022/03/07 09:24:52;;;;;;;10.77;9.40;;;9.30;32.50;;;;;;5038167;28;20637;-44
2022/03/07 09:27:18;;;;;;;10.07;8.57;;;9.40;32.70;;;;;;5042324;28;20431;-45
2022/03/07 09:29:44;;;;;;;11.93;10.43;;;9.50;32.40;;;;;;5038359;28;20242;-44
2022/03/07 09:32:10;;;;;;;10.07;8.73;;;9.40;31.80;;;;;;5049641;28;20552;-44
2022/03/07 09:34:35;;;;;;;11.20;9.50;;;9.50;32.50;;;;;;5045567;28;20427;-47
2022/03/07 09:37:04;;;;;;;9.40;8.50;;;9.30;31.90;;;;;;5047871;28;20720;-44
2022/03/07 09:39:30;;;;;;;11.90;9.50;;;9.10;31.90;;;;;;5045160;28;20193;-44
2022/03/07 09:41:57;;;;;;;10.37;9.33;;;9.30;31.90;;;;;;5041057;28;20523;-44
2022/03/07 09:44:23;;;;;;;10.17;9.10;;;9.60;32.60;;;;;;5047193;28;20568;-44
2022/03/07 09:46:50;;;;;;;11.83;9.20;;;10.00;31.30;;;;;;5048593;28;20447;-44
2022/03/07 09:49:18;;;;;;;9.53;8.63;;;10.20;31.40;;;;;;5038749;28;20452;-44
2022/03/07 09:51:44;;;;;;;11.23;9.60;;;10.40;30.60;;;;;;5037876;28;20455;-46
2022/03/07 09:54:09;;;;;;;9.67;8.67;;;10.70;30.70;;;;;;5045266;28;20435;-47
2022/03/07 09:56:35;;;;;;;11.00;9.70;;;10.60;29.80;;;;;;5038013;28;20193;-45
2022/03/07 09:59:00;;;;;;;10.30;8.50;;;10.50;30.00;;;;;;5042586;28;20224;-44
2022/03/07 10:01:26;;;;;;;11.23;10.07;;;10.80;29.90;;;;;;5042662;28;20211;-44
2022/03/07 10:04:04;;;;;;;10.60;8.80;;;11.00;29.30;;;;;;5043447;28;20202;-46
2022/03/07 10:06:31;;;;;;;9.47;8.43;;;10.80;28.70;;;;;;5042025;28;20193;-46
2022/03/07 10:08:58;;;;;;;11.10;9.20;;;10.50;28.40;;;;;;5044598;28;20435;-44
2022/03/07 10:11:25;;;;;;;9.90;8.90;;;10.50;29.60;;;;;;5045716;28;20435;-44
2022/03/07 10:14:09;;;;;;;10.17;8.87;;;10.70;29.30;;;;;;5048111;28;20482;-44
2022/03/07 10:16:42;;;;;;;10.10;9.00;;;10.40;29.20;;;;;;5035111;28;20928;-44
2022/03/07 10:19:13;;;;;;;10.47;9.10;;;10.40;29.50;;;;;;5042483;28;20455;-45
2022/03/07 10:21:46;;;;;;;9.00;8.10;;;10.70;29.30;;;;;;5043033;28;20861;-44
2022/03/07 10:24:12;;;;;;;9.90;8.90;;;10.60;29.10;;;;;;5043584;28;21045;-47
2022/03/07 10:26:37;;;;;;;9.70;8.60;;;10.10;29.30;;;;;;5048507;28;20496;-44
2022/03/07 10:29:05;;;;;;;11.50;9.00;;;10.10;29.70;;;;;;5048923;28;20222;-44
2022/03/07 10:31:31;;;;;;;10.37;8.57;;;10.10;29.50;;;;;;5044139;28;20193;-44
2022/03/07 10:34:08;;;;;;;10.20;9.20;;;10.20;29.50;;;;;;5050699;28;20441;-44
2022/03/07 10:36:36;;;;;;;10.50;9.47;;;10.10;29.00;;;;;;5049946;28;20529;-48
2022/03/07 10:39:15;;;;;;;10.17;9.10;;;10.10;29.20;;;;;;5044832;28;20555;-45
2022/03/07 10:41:46;;;;;;;9.10;8.30;;;10.20;29.30;;;;;;5049047;28;20484;-45
2022/03/07 10:44:31;;;;;;;9.00;8.10;;;10.00;29.10;;;;;;5040253;28;20482;-46
2022/03/07 10:47:10;;;;;;;11.63;9.27;;;9.70;30.00;;;;;;5044257;28;20443;-47
2022/03/07 10:49:45;;;;;;;10.40;8.83;;;9.60;31.00;;;;;;5049856;28;20507;-45
2022/03/07 10:52:10;;;;;;;12.20;8.97;;;9.90;30.60;;;;;;5048835;28;20435;-48
2022/03/07 10:54:37;;;;;;;9.50;8.50;;;10.30;29.60;;;;;;5044410;28;20481;-46
2022/03/07 10:57:03;;;;;;;8.97;8.00;;;10.40;29.00;;;;;;5045317;28;20565;-46
2022/03/07 10:59:33;;;;;;;9.93;8.50;;;10.70;28.50;;;;;;5042384;28;20446;-47
2022/03/07 11:02:09;;;;;;;9.73;8.70;;;11.10;28.20;;;;;;5045220;28;20501;-48
2022/03/07 11:04:36;;;;;;;12.00;9.83;;;11.10;27.90;;;;;;5049450;28;20490;-47
2022/03/07 11:07:01;;;;;;;9.87;8.97;;;11.00;27.60;;;;;;5031780;28;20450;-45
2022/03/07 11:09:27;;;;;;;10.63;9.30;;;11.00;27.70;;;;;;5046459;28;20820;-47
2022/03/07 11:11:54;;;;;;;12.70;9.57;;;11.20;27.40;;;;;;5041911;28;20656;-46
2022/03/07 11:14:21;;;;;;;9.80;8.80;;;11.50;27.40;;;;;;5049874;28;20273;-48
2022/03/07 11:16:49;;;;;;;10.03;9.07;;;11.60;27.40;;;;;;5037523;28;20442;-45
2022/03/07 11:19:18;;;;;;;11.67;9.50;;;11.50;28.00;;;;;;5042966;28;20474;-45
2022/03/07 11:21:45;;;;;;;9.70;8.63;;;11.90;27.60;;;;;;5050834;28;20446;-46
2022/03/07 11:24:10;;;;;;;10.00;9.00;;;12.40;27.40;;;;;;5047639;28;20481;-47
2022/03/07 11:26:41;;;;;;;9.30;8.30;;;12.90;26.90;;;;;;5049385;28;20431;-45
2022/03/07 11:29:08;;;;;;;9.23;8.10;;;13.20;26.60;;;;;;5044905;28;20200;-46
2022/03/07 11:31:34;;;;;;;10.17;8.90;;;13.10;25.90;;;;;;5046628;28;20427;-48
2022/03/07 11:34:07;;;;;;;9.13;8.27;;;13.20;26.30;;;;;;5038953;28;20508;-49
2022/03/07 11:36:41;;;;;;;8.93;8.03;;;13.40;25.90;;;;;;5042602;28;20757;-51
2022/03/07 11:39:08;;;;;;;9.27;8.23;;;13.60;26.10;;;;;;5049035;28;20439;-46
2022/03/07 11:41:36;;;;;;;9.27;8.47;;;14.10;25.90;;;;;;5045968;28;20438;-50
2022/03/07 11:44:04;;;;;;;10.07;9.03;;;14.00;24.20;;;;;;5045476;28;20481;-49
2022/03/07 11:46:51;;;;;;;9.87;8.97;;;14.00;24.60;;;;;;5047449;28;20529;-52
2022/03/07 11:49:26;;;;;;;11.57;10.53;;;13.60;24.80;;;;;;5042187;28;20451;-46
2022/03/07 11:52:10;;;;;;;10.33;9.43;;;13.00;24.80;;;;;;5046172;28;20457;-51
2022/03/07 11:54:55;;;;;;;10.77;9.60;;;13.00;25.50;;;;;;5043461;28;20447;-51
2022/03/07 11:57:44;;;;;;;9.77;8.87;;;12.80;25.20;;;;;;5045390;28;20450;-47
2022/03/07 12:00:19;;;;;;;10.43;9.30;;;12.30;25.30;;;;;;5040711;28;20438;-52
2022/03/07 12:02:47;;;;;;;9.67;8.07;;;12.10;25.60;;;;;;5048595;28;20525;-50
2022/03/07 12:05:22;;;;;;;9.60;8.53;;;11.80;26.00;;;;;;5047592;28;20585;-52
2022/03/07 12:07:48;;;;;;;9.40;8.50;;;11.70;26.20;;;;;;5047916;28;20445;-49
2022/03/07 12:10:14;;;;;;;9.60;8.63;;;11.60;26.60;;;;;;5041503;28;20428;-50
2022/03/07 12:12:40;;;;;;;10.23;9.23;;;11.60;26.20;;;;;;5047130;28;20192;-48
2022/03/07 12:15:10;;;;;;;9.43;8.43;;;12.00;27.00;;;;;;5041633;28;20271;-48
2022/03/07 12:17:36;;;;;;;9.70;8.70;;;11.80;26.10;;;;;;5046964;28;20197;-51
2022/03/07 12:20:02;;;;;;;10.50;9.50;;;11.90;26.10;;;;;;5044979;28;20435;-50
2022/03/07 12:22:30;;;;;;;10.70;9.70;;;11.90;26.00;;;;;;5047246;28;20505;-51
2022/03/07 12:25:00;;;;;;;9.63;8.37;;;12.10;25.80;;;;;;5047927;28;20483;-52
2022/03/07 12:27:26;;;;;;;10.33;9.23;;;12.50;25.70;;;;;;5048376;28;20496;-48
2022/03/07 12:29:51;;;;;;;12.57;9.13;;;12.20;25.30;;;;;;5035261;28;20431;-49
2022/03/07 12:32:18;;;;;;;13.90;8.87;;;11.70;25.70;;;;;;5044660;28;20466;-51
2022/03/07 12:34:46;;;;;;;10.23;9.23;;;11.80;25.80;;;;;;5042737;28;20200;-47
2022/03/07 12:37:17;;;;;;;11.50;10.10;;;12.10;25.70;;;;;;5047556;28;20427;-51
2022/03/07 12:39:45;;;;;;;10.13;8.87;;;12.60;25.90;;;;;;5044174;28;20508;-48
2022/03/07 12:42:10;;;;;;;10.20;9.03;;;12.50;25.30;;;;;;5046641;28;20466;-49
2022/03/07 12:44:39;;;;;;;10.40;9.40;;;12.20;25.70;;;;;;5045076;28;20495;-48
2022/03/07 12:47:06;;;;;;;10.27;9.27;;;12.50;25.20;;;;;;5047161;28;21008;-51